Chiniot Weather



Chiniot's Current Weather

Temprature 17.89o clear sky

clear sky

Rain: 0 %

Min Temprature17.89o
Max Temprature17.89o
Humidity27
Wind Speed1.52 m/h
Sun Rise06:21:03
Sun Set17:22:27
Current Time: 28-Oct-2020 06:55:09
Lat/Lon: 31.72, 72.98




Chiniot's Geo Location



Chiniot's Weather Forecast

Time Overall Temp Min Temp Max Temp Humidity Wind Speed Rain
28-Oct-2020 (Wed)
08:00:00 clear sky 19.810 19.810 21.820 23 1.37 m/h 0 %
11:00:00 clear sky 27.890 27.890 30.640 15 2.46 m/h 0 %
14:00:00 clear sky 32.190 32.190 33.170 11 2.58 m/h 0 %
17:00:00 clear sky 28.460 28.460 28.550 14 1.55 m/h 0 %
20:00:00 clear sky 23.180 23.180 23.180 19 1.77 m/h 0 %
23:00:00 clear sky 20.470 20.470 20.470 23 2.79 m/h 0 %
29-Oct-2020 (Thu)
02:00:00 clear sky 18.240 18.240 18.240 26 2.68 m/h 0 %
05:00:00 clear sky 16.540 16.540 16.540 29 2.17 m/h 0 %
08:00:00 clear sky 20.600 20.600 20.600 22 2.21 m/h 0 %
11:00:00 clear sky 30.130 30.130 30.130 13 1.47 m/h 0 %
14:00:00 clear sky 33.550 33.550 33.550 11 0.68 m/h 0 %
17:00:00 clear sky 27.850 27.850 27.850 15 0.94 m/h 0 %
20:00:00 clear sky 22.530 22.530 22.530 21 2.2 m/h 0 %
23:00:00 clear sky 20.160 20.160 20.160 24 2.04 m/h 0 %
30-Oct-2020 (Fri)
02:00:00 clear sky 18.520 18.520 18.520 26 2.77 m/h 0 %
05:00:00 clear sky 17.260 17.260 17.260 29 2.31 m/h 0 %
08:00:00 clear sky 21.100 21.100 21.100 23 1.99 m/h 0 %
11:00:00 clear sky 30.110 30.110 30.110 13 3.12 m/h 0 %
14:00:00 clear sky 32.970 32.970 32.970 11 3.13 m/h 0 %
17:00:00 clear sky 28.280 28.280 28.280 14 2.25 m/h 0 %
20:00:00 clear sky 22.280 22.280 22.280 20 2.7 m/h 0 %
23:00:00 clear sky 20.200 20.200 20.200 22 2.37 m/h 0 %
31-Oct-2020 (Sat)
02:00:00 clear sky 18.870 18.870 18.870 24 2.07 m/h 0 %
05:00:00 clear sky 16.920 16.920 16.920 26 1.02 m/h 0 %
08:00:00 clear sky 21.860 21.860 21.860 19 1 m/h 0 %
11:00:00 clear sky 31.130 31.130 31.130 11 2.44 m/h 0 %
14:00:00 clear sky 33.760 33.760 33.760 9 4.3 m/h 0 %
17:00:00 clear sky 28.000 28.000 28.000 13 2.48 m/h 0 %
20:00:00 clear sky 21.140 21.140 21.140 19 1.64 m/h 0 %
23:00:00 clear sky 18.770 18.770 18.770 21 0.91 m/h 0 %
01-Nov-2020 (Sun)
02:00:00 clear sky 17.790 17.790 17.790 22 1.08 m/h 0 %
05:00:00 clear sky 16.640 16.640 16.640 24 0.86 m/h 0 %
08:00:00 clear sky 21.560 21.560 21.560 18 0.89 m/h 0 %
11:00:00 clear sky 30.390 30.390 30.390 11 2.63 m/h 0 %
14:00:00 clear sky 33.360 33.360 33.360 9 3.93 m/h 0 %
17:00:00 clear sky 27.790 27.790 27.790 13 2.9 m/h 0 %
20:00:00 clear sky 21.210 21.210 21.210 20 2.03 m/h 0 %
23:00:00 clear sky 19.460 19.460 19.460 21 1.02 m/h 0 %
02-Nov-2020 (Mon)
02:00:00 clear sky 18.430 18.430 18.430 22 1.47 m/h 0 %
05:00:00 clear sky 16.830 16.830 16.830 25 0.91 m/h 0 %


Chiniot's Tourist Spots

Historical Places in Chiniot

Famous Cities (60)